sensor_id;sensor_type;location;lat;lon;timestamp;P1;durP1;ratioP1;P2;durP2;ratioP2
39890;SDS011;25564;53.312;9.790;2023-05-07T00:00:59;15.43;;;7.37;;
39890;SDS011;25564;53.312;9.790;2023-05-07T00:03:31;12.50;;;6.77;;
39890;SDS011;25564;53.312;9.790;2023-05-07T00:06:02;14.53;;;7.90;;
39890;SDS011;25564;53.312;9.790;2023-05-07T00:08:34;11.70;;;7.00;;
39890;SDS011;25564;53.312;9.790;2023-05-07T00:11:05;15.97;;;6.97;;
39890;SDS011;25564;53.312;9.790;2023-05-07T00:13:37;14.23;;;7.20;;
39890;SDS011;25564;53.312;9.790;2023-05-07T00:16:08;12.60;;;6.67;;
39890;SDS011;25564;53.312;9.790;2023-05-07T00:18:39;12.77;;;7.30;;
39890;SDS011;25564;53.312;9.790;2023-05-07T00:21:11;13.67;;;6.73;;
39890;SDS011;25564;53.312;9.790;2023-05-07T00:23:42;11.97;;;6.73;;
39890;SDS011;25564;53.312;9.790;2023-05-07T00:26:13;13.67;;;7.43;;
39890;SDS011;25564;53.312;9.790;2023-05-07T00:28:45;11.33;;;6.40;;
39890;SDS011;25564;53.312;9.790;2023-05-07T00:31:16;13.27;;;7.43;;
39890;SDS011;25564;53.312;9.790;2023-05-07T00:33:47;12.00;;;6.77;;
39890;SDS011;25564;53.312;9.790;2023-05-07T00:36:19;11.47;;;6.67;;
39890;SDS011;25564;53.312;9.790;2023-05-07T00:38:50;13.60;;;7.13;;
39890;SDS011;25564;53.312;9.790;2023-05-07T00:41:21;10.23;;;6.10;;
39890;SDS011;25564;53.312;9.790;2023-05-07T00:43:53;10.70;;;6.80;;
39890;SDS011;25564;53.312;9.790;2023-05-07T00:46:24;12.77;;;5.80;;
39890;SDS011;25564;53.312;9.790;2023-05-07T00:48:57;10.57;;;5.30;;
39890;SDS011;25564;53.312;9.790;2023-05-07T00:51:30;10.43;;;6.30;;
39890;SDS011;25564;53.312;9.790;2023-05-07T00:54:02;10.73;;;5.77;;
39890;SDS011;25564;53.312;9.790;2023-05-07T00:56:34;10.03;;;5.33;;
39890;SDS011;25564;53.312;9.790;2023-05-07T00:59:05;9.57;;;5.47;;
39890;SDS011;25564;53.312;9.790;2023-05-07T01:01:37;10.17;;;5.53;;
39890;SDS011;25564;53.312;9.790;2023-05-07T01:04:08;8.17;;;5.03;;
39890;SDS011;25564;53.312;9.790;2023-05-07T01:06:40;11.53;;;6.20;;
39890;SDS011;25564;53.312;9.790;2023-05-07T01:09:13;9.53;;;5.23;;
39890;SDS011;25564;53.312;9.790;2023-05-07T01:11:45;11.07;;;5.77;;
39890;SDS011;25564;53.312;9.790;2023-05-07T01:14:17;8.73;;;5.27;;
39890;SDS011;25564;53.312;9.790;2023-05-07T01:16:49;9.53;;;5.27;;
39890;SDS011;25564;53.312;9.790;2023-05-07T01:19:22;7.83;;;5.47;;
39890;SDS011;25564;53.312;9.790;2023-05-07T01:21:53;8.27;;;4.77;;
39890;SDS011;25564;53.312;9.790;2023-05-07T01:24:33;9.20;;;5.67;;
39890;SDS011;25564;53.312;9.790;2023-05-07T01:27:07;8.77;;;5.07;;
39890;SDS011;25564;53.312;9.790;2023-05-07T01:29:38;8.83;;;5.50;;
39890;SDS011;25564;53.312;9.790;2023-05-07T01:32:10;8.40;;;5.20;;
39890;SDS011;25564;53.312;9.790;2023-05-07T01:34:42;9.73;;;5.33;;
39890;SDS011;25564;53.312;9.790;2023-05-07T01:37:17;13.27;;;6.50;;
39890;SDS011;25564;53.312;9.790;2023-05-07T01:39:48;9.27;;;5.60;;
39890;SDS011;25564;53.312;9.790;2023-05-07T01:42:20;8.40;;;5.50;;
39890;SDS011;25564;53.312;9.790;2023-05-07T01:44:52;9.07;;;5.83;;
39890;SDS011;25564;53.312;9.790;2023-05-07T01:47:24;10.27;;;5.83;;
39890;SDS011;25564;53.312;9.790;2023-05-07T01:49:56;8.60;;;5.40;;
39890;SDS011;25564;53.312;9.790;2023-05-07T01:52:28;8.00;;;4.90;;
39890;SDS011;25564;53.312;9.790;2023-05-07T01:55:00;10.70;;;6.53;;
39890;SDS011;25564;53.312;9.790;2023-05-07T01:57:31;8.83;;;5.03;;
39890;SDS011;25564;53.312;9.790;2023-05-07T02:00:03;9.53;;;5.47;;
39890;SDS011;25564;53.312;9.790;2023-05-07T02:02:36;8.57;;;5.10;;
39890;SDS011;25564;53.312;9.790;2023-05-07T02:05:09;8.37;;;5.10;;
39890;SDS011;25564;53.312;9.790;2023-05-07T02:07:41;8.63;;;5.30;;
39890;SDS011;25564;53.312;9.790;2023-05-07T02:10:12;9.80;;;5.50;;
39890;SDS011;25564;53.312;9.790;2023-05-07T02:12:44;8.70;;;5.20;;
39890;SDS011;25564;53.312;9.790;2023-05-07T02:15:15;7.83;;;5.30;;
39890;SDS011;25564;53.312;9.790;2023-05-07T02:20:35;7.53;;;4.73;;
39890;SDS011;25564;53.312;9.790;2023-05-07T02:23:06;6.67;;;4.10;;
39890;SDS011;25564;53.312;9.790;2023-05-07T02:25:38;8.60;;;4.87;;
39890;SDS011;25564;53.312;9.790;2023-05-07T02:28:09;11.53;;;4.90;;
39890;SDS011;25564;53.312;9.790;2023-05-07T02:30:40;7.60;;;4.57;;
39890;SDS011;25564;53.312;9.790;2023-05-07T02:33:12;7.33;;;4.47;;
39890;SDS011;25564;53.312;9.790;2023-05-07T02:35:45;6.60;;;4.20;;
39890;SDS011;25564;53.312;9.790;2023-05-07T02:38:16;8.30;;;5.33;;
39890;SDS011;25564;53.312;9.790;2023-05-07T02:40:47;9.07;;;4.87;;
39890;SDS011;25564;53.312;9.790;2023-05-07T02:43:19;7.83;;;4.33;;
39890;SDS011;25564;53.312;9.790;2023-05-07T02:45:59;8.47;;;4.67;;
39890;SDS011;25564;53.312;9.790;2023-05-07T02:48:32;7.10;;;4.77;;
39890;SDS011;25564;53.312;9.790;2023-05-07T02:51:04;7.50;;;4.43;;
39890;SDS011;25564;53.312;9.790;2023-05-07T02:53:36;7.47;;;4.63;;
39890;SDS011;25564;53.312;9.790;2023-05-07T02:56:07;7.07;;;4.20;;
39890;SDS011;25564;53.312;9.790;2023-05-07T02:58:39;7.60;;;4.47;;
39890;SDS011;25564;53.312;9.790;2023-05-07T03:01:10;8.47;;;5.47;;
39890;SDS011;25564;53.312;9.790;2023-05-07T03:03:42;8.53;;;5.40;;
39890;SDS011;25564;53.312;9.790;2023-05-07T03:06:13;6.13;;;4.07;;
39890;SDS011;25564;53.312;9.790;2023-05-07T03:08:45;8.47;;;4.83;;
39890;SDS011;25564;53.312;9.790;2023-05-07T03:11:16;7.80;;;4.83;;
39890;SDS011;25564;53.312;9.790;2023-05-07T03:13:47;8.27;;;5.03;;
39890;SDS011;25564;53.312;9.790;2023-05-07T03:16:20;9.17;;;5.73;;
39890;SDS011;25564;53.312;9.790;2023-05-07T03:18:51;8.87;;;4.83;;
39890;SDS011;25564;53.312;9.790;2023-05-07T03:21:23;10.27;;;5.27;;
39890;SDS011;25564;53.312;9.790;2023-05-07T03:23:54;8.63;;;5.10;;
39890;SDS011;25564;53.312;9.790;2023-05-07T03:26:26;8.77;;;5.33;;
39890;SDS011;25564;53.312;9.790;2023-05-07T03:28:57;9.27;;;4.97;;
39890;SDS011;25564;53.312;9.790;2023-05-07T03:31:28;11.80;;;5.73;;
39890;SDS011;25564;53.312;9.790;2023-05-07T03:34:00;9.63;;;5.73;;
39890;SDS011;25564;53.312;9.790;2023-05-07T03:36:31;8.50;;;5.30;;
39890;SDS011;25564;53.312;9.790;2023-05-07T03:39:02;9.73;;;6.00;;
39890;SDS011;25564;53.312;9.790;2023-05-07T03:41:34;9.87;;;5.70;;
39890;SDS011;25564;53.312;9.790;2023-05-07T03:44:05;9.23;;;5.40;;
39890;SDS011;25564;53.312;9.790;2023-05-07T03:46:37;9.47;;;5.60;;
39890;SDS011;25564;53.312;9.790;2023-05-07T03:49:08;9.53;;;5.83;;
39890;SDS011;25564;53.312;9.790;2023-05-07T03:51:40;12.17;;;6.60;;
39890;SDS011;25564;53.312;9.790;2023-05-07T03:54:11;10.00;;;5.73;;
39890;SDS011;25564;53.312;9.790;2023-05-07T03:56:42;11.80;;;6.67;;
39890;SDS011;25564;53.312;9.790;2023-05-07T03:59:14;10.33;;;6.07;;
39890;SDS011;25564;53.312;9.790;2023-05-07T04:01:45;10.60;;;6.07;;
39890;SDS011;25564;53.312;9.790;2023-05-07T04:04:17;9.57;;;5.60;;
39890;SDS011;25564;53.312;9.790;2023-05-07T04:06:48;9.40;;;5.43;;
39890;SDS011;25564;53.312;9.790;2023-05-07T04:09:20;9.93;;;5.60;;
39890;SDS011;25564;53.312;9.790;2023-05-07T04:11:51;11.70;;;6.00;;
39890;SDS011;25564;53.312;9.790;2023-05-07T04:14:22;10.63;;;5.80;;
39890;SDS011;25564;53.312;9.790;2023-05-07T04:16:54;11.93;;;6.03;;
39890;SDS011;25564;53.312;9.790;2023-05-07T04:19:25;11.03;;;5.77;;
39890;SDS011;25564;53.312;9.790;2023-05-07T04:21:57;9.17;;;5.70;;
39890;SDS011;25564;53.312;9.790;2023-05-07T04:24:31;11.27;;;5.97;;
39890;SDS011;25564;53.312;9.790;2023-05-07T04:27:04;10.68;;;6.60;;
39890;SDS011;25564;53.312;9.790;2023-05-07T04:29:35;10.70;;;6.60;;
39890;SDS011;25564;53.312;9.790;2023-05-07T04:32:06;11.97;;;6.30;;
39890;SDS011;25564;53.312;9.790;2023-05-07T04:34:38;12.40;;;6.37;;
39890;SDS011;25564;53.312;9.790;2023-05-07T04:37:09;9.97;;;5.80;;
39890;SDS011;25564;53.312;9.790;2023-05-07T04:39:41;10.17;;;6.27;;
39890;SDS011;25564;53.312;9.790;2023-05-07T04:42:15;11.17;;;6.60;;
39890;SDS011;25564;53.312;9.790;2023-05-07T04:44:47;12.50;;;6.93;;
39890;SDS011;25564;53.312;9.790;2023-05-07T04:47:18;9.20;;;5.83;;
39890;SDS011;25564;53.312;9.790;2023-05-07T04:49:49;10.90;;;6.13;;
39890;SDS011;25564;53.312;9.790;2023-05-07T04:52:21;12.70;;;6.73;;
39890;SDS011;25564;53.312;9.790;2023-05-07T04:54:52;11.00;;;6.17;;
39890;SDS011;25564;53.312;9.790;2023-05-07T04:57:23;10.30;;;6.47;;
39890;SDS011;25564;53.312;9.790;2023-05-07T04:59:55;11.07;;;5.97;;
39890;SDS011;25564;53.312;9.790;2023-05-07T05:02:26;11.30;;;6.30;;
39890;SDS011;25564;53.312;9.790;2023-05-07T05:04:57;8.70;;;5.70;;
39890;SDS011;25564;53.312;9.790;2023-05-07T05:07:30;9.90;;;5.80;;
39890;SDS011;25564;53.312;9.790;2023-05-07T05:10:01;10.60;;;6.33;;
39890;SDS011;25564;53.312;9.790;2023-05-07T05:12:34;10.53;;;6.13;;
39890;SDS011;25564;53.312;9.790;2023-05-07T05:15:05;11.30;;;6.60;;
39890;SDS011;25564;53.312;9.790;2023-05-07T05:17:37;11.23;;;6.00;;
39890;SDS011;25564;53.312;9.790;2023-05-07T05:20:09;12.43;;;6.37;;
39890;SDS011;25564;53.312;9.790;2023-05-07T05:22:42;11.53;;;6.40;;
39890;SDS011;25564;53.312;9.790;2023-05-07T05:25:13;10.83;;;5.77;;
39890;SDS011;25564;53.312;9.790;2023-05-07T05:27:45;10.67;;;5.97;;
39890;SDS011;25564;53.312;9.790;2023-05-07T05:30:16;10.63;;;6.87;;
39890;SDS011;25564;53.312;9.790;2023-05-07T05:32:47;9.07;;;5.43;;
39890;SDS011;25564;53.312;9.790;2023-05-07T05:35:19;10.20;;;5.63;;
39890;SDS011;25564;53.312;9.790;2023-05-07T05:37:50;9.90;;;5.20;;
39890;SDS011;25564;53.312;9.790;2023-05-07T05:40:21;10.03;;;5.80;;
39890;SDS011;25564;53.312;9.790;2023-05-07T05:42:53;12.37;;;6.47;;
39890;SDS011;25564;53.312;9.790;2023-05-07T05:45:24;10.00;;;6.07;;
39890;SDS011;25564;53.312;9.790;2023-05-07T05:47:56;11.80;;;6.43;;
39890;SDS011;25564;53.312;9.790;2023-05-07T05:50:27;12.07;;;7.33;;
39890;SDS011;25564;53.312;9.790;2023-05-07T05:52:59;10.20;;;5.57;;
39890;SDS011;25564;53.312;9.790;2023-05-07T05:55:30;11.27;;;6.43;;
39890;SDS011;25564;53.312;9.790;2023-05-07T05:58:03;11.97;;;5.50;;
39890;SDS011;25564;53.312;9.790;2023-05-07T06:00:34;10.93;;;6.23;;
39890;SDS011;25564;53.312;9.790;2023-05-07T06:03:06;9.70;;;5.43;;
39890;SDS011;25564;53.312;9.790;2023-05-07T06:05:37;11.13;;;6.20;;
39890;SDS011;25564;53.312;9.790;2023-05-07T06:08:09;10.33;;;5.87;;
39890;SDS011;25564;53.312;9.790;2023-05-07T06:10:40;10.00;;;6.00;;
39890;SDS011;25564;53.312;9.790;2023-05-07T06:13:12;9.83;;;5.70;;
39890;SDS011;25564;53.312;9.790;2023-05-07T06:15:43;11.43;;;5.93;;
39890;SDS011;25564;53.312;9.790;2023-05-07T06:18:14;9.47;;;5.90;;
39890;SDS011;25564;53.312;9.790;2023-05-07T06:20:46;10.47;;;5.97;;
39890;SDS011;25564;53.312;9.790;2023-05-07T06:23:17;10.13;;;5.70;;
39890;SDS011;25564;53.312;9.790;2023-05-07T06:25:49;11.03;;;6.03;;
39890;SDS011;25564;53.312;9.790;2023-05-07T06:28:23;10.20;;;5.50;;
39890;SDS011;25564;53.312;9.790;2023-05-07T06:30:55;11.57;;;6.40;;
39890;SDS011;25564;53.312;9.790;2023-05-07T06:33:26;9.80;;;5.70;;
39890;SDS011;25564;53.312;9.790;2023-05-07T06:35:57;13.73;;;6.20;;
39890;SDS011;25564;53.312;9.790;2023-05-07T06:38:29;10.43;;;5.07;;
39890;SDS011;25564;53.312;9.790;2023-05-07T06:41:00;7.70;;;5.30;;
39890;SDS011;25564;53.312;9.790;2023-05-07T06:43:31;8.67;;;5.63;;
39890;SDS011;25564;53.312;9.790;2023-05-07T06:46:03;9.87;;;5.63;;
39890;SDS011;25564;53.312;9.790;2023-05-07T06:48:34;9.50;;;5.30;;
39890;SDS011;25564;53.312;9.790;2023-05-07T06:51:06;8.07;;;5.10;;
39890;SDS011;25564;53.312;9.790;2023-05-07T06:53:37;9.33;;;5.30;;
39890;SDS011;25564;53.312;9.790;2023-05-07T06:56:08;10.00;;;5.57;;
39890;SDS011;25564;53.312;9.790;2023-05-07T06:58:40;11.87;;;5.97;;
39890;SDS011;25564;53.312;9.790;2023-05-07T07:01:11;8.83;;;5.50;;
39890;SDS011;25564;53.312;9.790;2023-05-07T07:03:42;9.83;;;4.63;;
39890;SDS011;25564;53.312;9.790;2023-05-07T07:06:14;9.63;;;5.10;;
39890;SDS011;25564;53.312;9.790;2023-05-07T07:08:45;7.83;;;4.90;;
39890;SDS011;25564;53.312;9.790;2023-05-07T07:11:17;9.53;;;5.00;;
39890;SDS011;25564;53.312;9.790;2023-05-07T07:13:48;8.07;;;4.77;;
39890;SDS011;25564;53.312;9.790;2023-05-07T07:16:20;9.53;;;5.40;;
39890;SDS011;25564;53.312;9.790;2023-05-07T07:18:52;6.90;;;4.37;;
39890;SDS011;25564;53.312;9.790;2023-05-07T07:21:23;10.73;;;5.00;;
39890;SDS011;25564;53.312;9.790;2023-05-07T07:23:54;10.20;;;4.73;;
39890;SDS011;25564;53.312;9.790;2023-05-07T07:26:26;9.37;;;4.97;;
39890;SDS011;25564;53.312;9.790;2023-05-07T07:28:57;9.43;;;4.97;;
39890;SDS011;25564;53.312;9.790;2023-05-07T07:31:28;8.27;;;4.90;;
39890;SDS011;25564;53.312;9.790;2023-05-07T07:34:00;9.47;;;4.50;;
39890;SDS011;25564;53.312;9.790;2023-05-07T07:36:31;7.03;;;4.50;;
39890;SDS011;25564;53.312;9.790;2023-05-07T07:39:15;5.73;;;4.17;;
39890;SDS011;25564;53.312;9.790;2023-05-07T07:41:47;7.40;;;4.77;;
39890;SDS011;25564;53.312;9.790;2023-05-07T07:44:18;7.73;;;4.23;;
39890;SDS011;25564;53.312;9.790;2023-05-07T07:46:49;5.93;;;3.80;;
39890;SDS011;25564;53.312;9.790;2023-05-07T07:49:21;9.27;;;4.60;;
39890;SDS011;25564;53.312;9.790;2023-05-07T07:51:53;7.63;;;4.40;;
39890;SDS011;25564;53.312;9.790;2023-05-07T07:54:24;6.87;;;4.07;;
39890;SDS011;25564;53.312;9.790;2023-05-07T07:56:56;7.07;;;4.13;;
39890;SDS011;25564;53.312;9.790;2023-05-07T07:59:27;5.77;;;4.00;;
39890;SDS011;25564;53.312;9.790;2023-05-07T08:01:59;6.13;;;3.70;;
39890;SDS011;25564;53.312;9.790;2023-05-07T08:04:30;6.03;;;3.70;;
39890;SDS011;25564;53.312;9.790;2023-05-07T08:07:04;6.40;;;3.60;;
39890;SDS011;25564;53.312;9.790;2023-05-07T08:09:36;7.00;;;3.87;;
39890;SDS011;25564;53.312;9.790;2023-05-07T08:12:08;7.03;;;3.93;;
39890;SDS011;25564;53.312;9.790;2023-05-07T08:14:39;6.47;;;3.87;;
39890;SDS011;25564;53.312;9.790;2023-05-07T08:17:11;9.23;;;4.73;;
39890;SDS011;25564;53.312;9.790;2023-05-07T08:19:43;8.73;;;3.73;;
39890;SDS011;25564;53.312;9.790;2023-05-07T08:22:14;6.87;;;4.20;;
39890;SDS011;25564;53.312;9.790;2023-05-07T08:24:46;6.60;;;3.70;;
39890;SDS011;25564;53.312;9.790;2023-05-07T08:27:17;6.40;;;3.80;;
39890;SDS011;25564;53.312;9.790;2023-05-07T08:29:49;8.47;;;4.30;;
39890;SDS011;25564;53.312;9.790;2023-05-07T08:32:21;7.67;;;4.63;;
39890;SDS011;25564;53.312;9.790;2023-05-07T08:34:52;9.90;;;4.33;;
39890;SDS011;25564;53.312;9.790;2023-05-07T08:37:23;10.07;;;4.17;;
39890;SDS011;25564;53.312;9.790;2023-05-07T08:39:55;7.00;;;4.60;;
39890;SDS011;25564;53.312;9.790;2023-05-07T08:42:26;6.63;;;3.83;;
39890;SDS011;25564;53.312;9.790;2023-05-07T08:44:59;7.37;;;4.20;;
39890;SDS011;25564;53.312;9.790;2023-05-07T08:47:34;6.13;;;3.47;;
39890;SDS011;25564;53.312;9.790;2023-05-07T08:50:10;4.93;;;3.33;;
39890;SDS011;25564;53.312;9.790;2023-05-07T08:52:42;5.63;;;3.60;;
39890;SDS011;25564;53.312;9.790;2023-05-07T08:55:14;6.10;;;3.80;;
39890;SDS011;25564;53.312;9.790;2023-05-07T08:57:46;7.07;;;3.77;;
39890;SDS011;25564;53.312;9.790;2023-05-07T09:00:19;5.50;;;3.83;;
39890;SDS011;25564;53.312;9.790;2023-05-07T09:02:51;6.30;;;4.20;;
39890;SDS011;25564;53.312;9.790;2023-05-07T09:05:23;6.77;;;4.20;;
39890;SDS011;25564;53.312;9.790;2023-05-07T09:07:55;6.87;;;3.90;;
39890;SDS011;25564;53.312;9.790;2023-05-07T09:10:29;6.87;;;4.03;;
39890;SDS011;25564;53.312;9.790;2023-05-07T09:13:00;6.50;;;3.47;;
39890;SDS011;25564;53.312;9.790;2023-05-07T09:15:34;6.77;;;3.87;;
39890;SDS011;25564;53.312;9.790;2023-05-07T09:18:05;8.20;;;4.40;;
39890;SDS011;25564;53.312;9.790;2023-05-07T09:20:37;5.80;;;3.57;;
39890;SDS011;25564;53.312;9.790;2023-05-07T09:23:09;7.70;;;3.83;;
39890;SDS011;25564;53.312;9.790;2023-05-07T09:25:40;5.77;;;3.90;;
39890;SDS011;25564;53.312;9.790;2023-05-07T09:28:12;6.77;;;4.23;;
39890;SDS011;25564;53.312;9.790;2023-05-07T09:30:44;6.17;;;3.93;;
39890;SDS011;25564;53.312;9.790;2023-05-07T09:33:15;5.97;;;3.60;;
39890;SDS011;25564;53.312;9.790;2023-05-07T09:35:48;5.63;;;4.00;;
39890;SDS011;25564;53.312;9.790;2023-05-07T09:38:22;6.15;;;3.72;;
39890;SDS011;25564;53.312;9.790;2023-05-07T09:41:15;5.53;;;3.67;;
39890;SDS011;25564;53.312;9.790;2023-05-07T09:43:45;5.87;;;3.90;;
39890;SDS011;25564;53.312;9.790;2023-05-07T09:46:16;5.73;;;3.93;;
39890;SDS011;25564;53.312;9.790;2023-05-07T09:48:56;7.47;;;3.90;;
39890;SDS011;25564;53.312;9.790;2023-05-07T09:51:29;4.90;;;3.17;;
39890;SDS011;25564;53.312;9.790;2023-05-07T09:54:05;6.77;;;3.23;;
39890;SDS011;25564;53.312;9.790;2023-05-07T09:56:38;6.10;;;3.13;;
39890;SDS011;25564;53.312;9.790;2023-05-07T09:59:13;5.47;;;3.07;;
39890;SDS011;25564;53.312;9.790;2023-05-07T10:01:46;4.20;;;3.03;;
39890;SDS011;25564;53.312;9.790;2023-05-07T10:04:17;8.57;;;3.63;;
39890;SDS011;25564;53.312;9.790;2023-05-07T10:06:50;4.90;;;3.17;;
39890;SDS011;25564;53.312;9.790;2023-05-07T10:09:22;4.47;;;3.50;;
39890;SDS011;25564;53.312;9.790;2023-05-07T10:11:54;6.07;;;3.90;;
39890;SDS011;25564;53.312;9.790;2023-05-07T10:14:26;9.30;;;4.70;;
39890;SDS011;25564;53.312;9.790;2023-05-07T10:16:59;4.73;;;3.23;;
39890;SDS011;25564;53.312;9.790;2023-05-07T10:19:30;5.03;;;3.33;;
39890;SDS011;25564;53.312;9.790;2023-05-07T10:22:05;5.87;;;3.60;;
39890;SDS011;25564;53.312;9.790;2023-05-07T10:24:37;6.67;;;3.60;;
39890;SDS011;25564;53.312;9.790;2023-05-07T10:27:10;4.70;;;3.43;;
39890;SDS011;25564;53.312;9.790;2023-05-07T10:29:45;5.67;;;3.47;;
39890;SDS011;25564;53.312;9.790;2023-05-07T10:32:35;6.17;;;3.87;;
39890;SDS011;25564;53.312;9.790;2023-05-07T10:35:17;5.37;;;3.40;;
39890;SDS011;25564;53.312;9.790;2023-05-07T10:37:51;5.83;;;3.83;;
39890;SDS011;25564;53.312;9.790;2023-05-07T10:40:23;5.57;;;3.63;;
39890;SDS011;25564;53.312;9.790;2023-05-07T10:45:27;4.80;;;3.50;;
39890;SDS011;25564;53.312;9.790;2023-05-07T10:48:09;6.67;;;3.53;;
39890;SDS011;25564;53.312;9.790;2023-05-07T10:50:45;5.78;;;3.75;;
39890;SDS011;25564;53.312;9.790;2023-05-07T10:53:20;5.10;;;3.57;;
39890;SDS011;25564;53.312;9.790;2023-05-07T10:58:48;6.40;;;3.70;;
39890;SDS011;25564;53.312;9.790;2023-05-07T11:01:48;5.93;;;3.87;;
39890;SDS011;25564;53.312;9.790;2023-05-07T11:04:42;6.97;;;4.17;;
39890;SDS011;25564;53.312;9.790;2023-05-07T11:07:27;5.20;;;3.60;;
39890;SDS011;25564;53.312;9.790;2023-05-07T11:10:00;5.13;;;3.40;;
39890;SDS011;25564;53.312;9.790;2023-05-07T11:15:10;6.20;;;3.73;;
39890;SDS011;25564;53.312;9.790;2023-05-07T11:17:52;5.03;;;3.47;;
39890;SDS011;25564;53.312;9.790;2023-05-07T11:26:04;5.93;;;3.13;;
39890;SDS011;25564;53.312;9.790;2023-05-07T11:28:37;5.43;;;3.57;;
39890;SDS011;25564;53.312;9.790;2023-05-07T11:31:10;4.97;;;3.50;;
39890;SDS011;25564;53.312;9.790;2023-05-07T11:33:43;4.87;;;3.30;;
39890;SDS011;25564;53.312;9.790;2023-05-07T11:36:15;5.50;;;4.03;;
39890;SDS011;25564;53.312;9.790;2023-05-07T11:38:47;4.40;;;3.17;;
39890;SDS011;25564;53.312;9.790;2023-05-07T11:41:18;4.80;;;3.13;;
39890;SDS011;25564;53.312;9.790;2023-05-07T11:43:55;4.70;;;3.33;;
39890;SDS011;25564;53.312;9.790;2023-05-07T11:49:00;4.20;;;2.97;;
39890;SDS011;25564;53.312;9.790;2023-05-07T11:51:32;8.40;;;3.57;;
39890;SDS011;25564;53.312;9.790;2023-05-07T11:54:04;7.87;;;3.27;;
39890;SDS011;25564;53.312;9.790;2023-05-07T11:56:39;4.97;;;3.30;;
39890;SDS011;25564;53.312;9.790;2023-05-07T11:59:11;5.23;;;3.43;;
39890;SDS011;25564;53.312;9.790;2023-05-07T12:01:44;6.57;;;3.70;;
39890;SDS011;25564;53.312;9.790;2023-05-07T12:04:19;5.20;;;3.05;;
39890;SDS011;25564;53.312;9.790;2023-05-07T12:06:55;7.18;;;3.33;;
39890;SDS011;25564;53.312;9.790;2023-05-07T12:09:29;5.57;;;3.40;;
39890;SDS011;25564;53.312;9.790;2023-05-07T12:12:04;5.45;;;3.38;;
39890;SDS011;25564;53.312;9.790;2023-05-07T12:14:39;5.70;;;3.15;;
39890;SDS011;25564;53.312;9.790;2023-05-07T12:17:11;5.18;;;3.33;;
39890;SDS011;25564;53.312;9.790;2023-05-07T12:19:44;7.25;;;3.17;;
39890;SDS011;25564;53.312;9.790;2023-05-07T12:22:17;4.43;;;2.95;;
39890;SDS011;25564;53.312;9.790;2023-05-07T12:24:49;4.65;;;3.13;;
39890;SDS011;25564;53.312;9.790;2023-05-07T12:27:27;5.13;;;3.57;;
39890;SDS011;25564;53.312;9.790;2023-05-07T12:29:58;4.77;;;3.00;;
39890;SDS011;25564;53.312;9.790;2023-05-07T12:32:30;6.55;;;3.08;;
39890;SDS011;25564;53.312;9.790;2023-05-07T12:35:02;4.72;;;2.88;;
39890;SDS011;25564;53.312;9.790;2023-05-07T12:37:33;4.90;;;3.05;;
39890;SDS011;25564;53.312;9.790;2023-05-07T12:40:09;5.27;;;3.27;;
39890;SDS011;25564;53.312;9.790;2023-05-07T12:42:42;5.15;;;3.10;;
39890;SDS011;25564;53.312;9.790;2023-05-07T12:45:15;5.10;;;3.17;;
39890;SDS011;25564;53.312;9.790;2023-05-07T12:47:48;4.00;;;2.90;;
39890;SDS011;25564;53.312;9.790;2023-05-07T12:50:19;6.40;;;3.93;;
39890;SDS011;25564;53.312;9.790;2023-05-07T12:52:52;4.83;;;3.03;;
39890;SDS011;25564;53.312;9.790;2023-05-07T12:55:23;4.83;;;3.07;;
39890;SDS011;25564;53.312;9.790;2023-05-07T12:57:54;5.27;;;2.80;;
39890;SDS011;25564;53.312;9.790;2023-05-07T13:00:37;7.13;;;3.10;;
39890;SDS011;25564;53.312;9.790;2023-05-07T13:03:09;5.20;;;2.50;;
39890;SDS011;25564;53.312;9.790;2023-05-07T13:05:42;4.47;;;3.07;;
39890;SDS011;25564;53.312;9.790;2023-05-07T13:08:22;4.93;;;2.97;;
39890;SDS011;25564;53.312;9.790;2023-05-07T13:10:54;4.57;;;3.20;;
39890;SDS011;25564;53.312;9.790;2023-05-07T13:13:26;3.47;;;2.60;;
39890;SDS011;25564;53.312;9.790;2023-05-07T13:16:03;4.23;;;2.70;;
39890;SDS011;25564;53.312;9.790;2023-05-07T13:18:38;4.37;;;2.70;;
39890;SDS011;25564;53.312;9.790;2023-05-07T13:21:10;3.53;;;2.53;;
39890;SDS011;25564;53.312;9.790;2023-05-07T13:23:44;3.70;;;2.17;;
39890;SDS011;25564;53.312;9.790;2023-05-07T13:26:15;4.43;;;2.93;;
39890;SDS011;25564;53.312;9.790;2023-05-07T13:28:57;5.35;;;2.47;;
39890;SDS011;25564;53.312;9.790;2023-05-07T13:31:28;3.97;;;2.90;;
39890;SDS011;25564;53.312;9.790;2023-05-07T13:33:59;4.72;;;2.75;;
39890;SDS011;25564;53.312;9.790;2023-05-07T13:36:31;4.95;;;3.15;;
39890;SDS011;25564;53.312;9.790;2023-05-07T13:39:06;4.32;;;2.88;;
39890;SDS011;25564;53.312;9.790;2023-05-07T13:41:37;4.07;;;2.70;;
39890;SDS011;25564;53.312;9.790;2023-05-07T13:44:09;5.18;;;3.28;;
39890;SDS011;25564;53.312;9.790;2023-05-07T13:46:40;4.82;;;2.90;;
39890;SDS011;25564;53.312;9.790;2023-05-07T13:49:12;4.22;;;2.95;;
39890;SDS011;25564;53.312;9.790;2023-05-07T13:51:43;5.05;;;3.05;;
39890;SDS011;25564;53.312;9.790;2023-05-07T13:54:15;4.40;;;3.38;;
39890;SDS011;25564;53.312;9.790;2023-05-07T13:56:46;6.40;;;3.30;;
39890;SDS011;25564;53.312;9.790;2023-05-07T13:59:18;4.03;;;2.75;;
39890;SDS011;25564;53.312;9.790;2023-05-07T14:01:49;4.78;;;2.97;;
39890;SDS011;25564;53.312;9.790;2023-05-07T14:04:21;4.15;;;2.78;;
39890;SDS011;25564;53.312;9.790;2023-05-07T14:06:52;4.40;;;2.65;;
39890;SDS011;25564;53.312;9.790;2023-05-07T14:09:24;5.07;;;3.53;;
39890;SDS011;25564;53.312;9.790;2023-05-07T14:11:55;7.85;;;2.90;;
39890;SDS011;25564;53.312;9.790;2023-05-07T14:14:27;6.55;;;3.13;;
39890;SDS011;25564;53.312;9.790;2023-05-07T14:16:58;3.95;;;2.75;;
39890;SDS011;25564;53.312;9.790;2023-05-07T14:19:30;4.15;;;2.75;;
39890;SDS011;25564;53.312;9.790;2023-05-07T14:22:01;4.28;;;3.00;;
39890;SDS011;25564;53.312;9.790;2023-05-07T14:24:33;5.82;;;2.92;;
39890;SDS011;25564;53.312;9.790;2023-05-07T14:27:09;4.25;;;2.65;;
39890;SDS011;25564;53.312;9.790;2023-05-07T14:29:40;4.85;;;2.88;;
39890;SDS011;25564;53.312;9.790;2023-05-07T14:32:12;3.22;;;2.47;;
39890;SDS011;25564;53.312;9.790;2023-05-07T14:34:44;3.97;;;2.42;;
39890;SDS011;25564;53.312;9.790;2023-05-07T14:37:16;3.92;;;2.58;;
39890;SDS011;25564;53.312;9.790;2023-05-07T14:39:47;3.50;;;2.63;;
39890;SDS011;25564;53.312;9.790;2023-05-07T14:42:21;3.75;;;2.17;;
39890;SDS011;25564;53.312;9.790;2023-05-07T14:44:52;5.95;;;2.50;;
39890;SDS011;25564;53.312;9.790;2023-05-07T14:47:24;4.50;;;2.65;;
39890;SDS011;25564;53.312;9.790;2023-05-07T14:49:55;4.25;;;2.60;;
39890;SDS011;25564;53.312;9.790;2023-05-07T14:52:28;6.32;;;2.85;;
39890;SDS011;25564;53.312;9.790;2023-05-07T14:54:59;3.38;;;2.42;;
39890;SDS011;25564;53.312;9.790;2023-05-07T14:57:31;3.50;;;2.10;;
39890;SDS011;25564;53.312;9.790;2023-05-07T15:00:06;4.00;;;2.35;;
39890;SDS011;25564;53.312;9.790;2023-05-07T15:02:38;4.97;;;2.38;;
39890;SDS011;25564;53.312;9.790;2023-05-07T15:05:09;5.63;;;2.33;;
39890;SDS011;25564;53.312;9.790;2023-05-07T15:07:41;4.65;;;2.33;;
39890;SDS011;25564;53.312;9.790;2023-05-07T15:10:13;5.35;;;2.78;;
39890;SDS011;25564;53.312;9.790;2023-05-07T15:12:44;3.08;;;2.45;;
39890;SDS011;25564;53.312;9.790;2023-05-07T15:15:15;4.60;;;2.58;;
39890;SDS011;25564;53.312;9.790;2023-05-07T15:17:47;2.95;;;2.50;;
39890;SDS011;25564;53.312;9.790;2023-05-07T15:20:18;3.67;;;2.20;;
39890;SDS011;25564;53.312;9.790;2023-05-07T15:22:50;5.18;;;2.20;;
39890;SDS011;25564;53.312;9.790;2023-05-07T15:25:21;7.50;;;2.22;;
39890;SDS011;25564;53.312;9.790;2023-05-07T15:27:53;5.00;;;2.53;;
39890;SDS011;25564;53.312;9.790;2023-05-07T15:30:24;2.85;;;1.95;;
39890;SDS011;25564;53.312;9.790;2023-05-07T15:32:56;3.30;;;2.13;;
39890;SDS011;25564;53.312;9.790;2023-05-07T15:35:28;7.47;;;1.80;;